Time;durP1;ratioP1;P1;durP2;ratioP2;P2;SDS_P1;SDS_P2;PMS_P1;PMS_P2;Temp;Humidity;BMP_temperature;BMP_pressure;BME280_temperature;BME280_humidity;BME280_pressure;Samples;Min_cycle;Max_cycle;Signal;HPM_P1;HPM_P2
2022/04/28 00:02:36;;;;;;;2.90;2.60;;;14.40;36.40;;;11.90;39.34;102216.88;12240982;19;20023;-79
2022/04/28 00:06:37;;;;;;;4.28;3.25;;;14.20;36.50;;;12.10;39.54;102254.59;12241535;19;20007;-79
2022/04/28 00:10:40;;;;;;;3.28;2.70;;;14.30;36.60;;;11.87;39.37;102230.09;12241803;19;20093;-78
2022/04/28 00:14:43;;;;;;;4.80;2.88;;;14.30;36.70;;;11.77;39.52;102228.69;12238438;19;20705;-78
2022/04/28 00:18:45;;;;;;;2.80;2.50;;;14.20;36.70;;;11.90;39.59;102253.53;12243252;19;20018;-79
2022/04/28 00:22:47;;;;;;;2.70;2.45;;;14.00;36.70;;;11.85;39.72;102262.44;12238996;19;20031;-79
2022/04/28 00:26:48;;;;;;;3.25;2.05;;;14.10;36.80;;;11.75;39.74;102259.31;12240708;19;20014;-78
2022/04/28 00:30:51;;;;;;;2.53;2.33;;;13.90;36.80;;;11.59;39.69;102245.91;12242927;19;20011;-79
2022/04/28 00:34:53;;;;;;;2.80;2.58;;;13.90;36.90;;;11.52;39.84;102245.25;12238388;19;20049;-78
2022/04/28 00:38:54;;;;;;;3.38;2.65;;;13.90;37.00;;;11.56;39.97;102240.78;12235097;19;20535;-78
2022/04/28 00:43:18;;;;;;;3.17;2.47;;;13.80;37.10;;;11.62;39.88;102264.09;12239668;19;20035;-78
2022/04/28 00:47:18;;;;;;;2.47;2.28;;;13.80;37.20;;;11.49;39.88;102245.34;12238635;19;20011;-79
2022/04/28 00:51:19;;;;;;;3.10;2.50;;;13.80;37.20;;;11.21;40.20;102200.16;12232672;19;20025;-79
2022/04/28 00:55:21;;;;;;;2.55;2.10;;;13.60;37.20;;;11.55;40.21;102266.97;12230706;19;20441;-79
2022/04/28 00:59:25;;;;;;;4.13;2.22;;;13.50;37.30;;;11.39;40.18;102243.94;12234825;19;20035;-78
2022/04/28 01:03:30;;;;;;;5.13;2.30;;;13.70;37.40;;;11.39;40.22;102249.19;12225079;19;20018;-79
2022/04/28 01:07:32;;;;;;;2.83;2.45;;;13.50;37.30;;;11.57;40.19;102273.88;12242675;19;20002;-79
2022/04/28 01:11:34;;;;;;;2.42;2.22;;;13.70;37.40;;;11.34;40.18;102242.41;12250645;19;20085;-79
2022/04/28 01:15:43;;;;;;;3.25;2.45;;;13.60;37.50;;;11.30;40.47;102241.66;12251215;19;20472;-78
2022/04/28 01:19:45;;;;;;;5.75;2.50;;;13.60;37.60;;;11.53;40.56;102282.75;12251280;19;20416;-79
2022/04/28 01:23:47;;;;;;;2.53;2.33;;;13.50;37.70;;;11.29;40.52;102251.28;12248593;19;20022;-79
2022/04/28 01:27:52;;;;;;;3.08;2.42;;;13.70;37.80;;;11.49;40.55;102281.97;12247710;19;20011;-78
2022/04/28 01:31:54;;;;;;;1.90;1.77;;;13.40;37.70;;;11.46;40.60;102282.09;12250084;19;20502;-79
2022/04/28 01:35:56;;;;;;;2.20;2.10;;;13.50;37.90;;;11.28;40.68;102257.41;12249953;19;20347;-78
2022/04/28 01:39:58;;;;;;;2.53;2.30;;;13.60;37.90;;;11.40;40.91;102291.91;12251724;19;20028;-79
2022/04/28 01:44:01;;;;;;;2.88;2.67;;;13.90;38.00;;;11.29;40.87;102280.03;12247832;19;20044;-78
2022/04/28 01:48:04;;;;;;;2.47;2.28;;;13.50;37.90;;;11.14;40.96;102266.63;12244054;19;20014;-79
2022/04/28 01:57:02;;;;;;;2.83;2.45;;;13.40;38.00;;;11.16;41.21;102291.81;12248861;19;20018;-79
2022/04/28 02:01:23;;;;;;;2.05;1.90;;;13.40;38.10;;;11.11;41.31;102290.25;12243263;19;20022;-79
2022/04/28 02:05:24;;;;;;;2.05;1.85;;;13.30;38.10;;;10.88;41.11;102254.38;12247291;19;20111;-79
2022/04/28 02:09:26;;;;;;;2.33;2.03;;;13.30;38.20;;;11.10;41.43;102294.63;12248211;19;20048;-79
2022/04/28 02:13:29;;;;;;;2.33;2.13;;;13.20;38.20;;;11.00;41.25;102299.28;12245103;19;20041;-79
2022/04/28 02:17:53;;;;;;;2.90;2.45;;;13.30;38.30;;;10.95;41.34;102290.72;12246013;19;20050;-79
2022/04/28 02:21:54;;;;;;;2.85;2.30;;;13.20;38.20;;;10.91;41.40;102283.91;12247075;19;20003;-79
2022/04/28 02:25:56;;;;;;;2.42;2.22;;;13.10;38.30;;;10.90;41.66;102283.94;12246185;19;20026;-79
2022/04/28 02:29:58;;;;;;;2.65;2.38;;;13.10;38.40;;;10.89;41.49;102301.38;12249118;19;20468;-79
2022/04/28 02:34:00;;;;;;;2.88;2.47;;;13.10;38.40;;;10.85;41.71;102290.19;12244277;19;20018;-79
2022/04/28 02:38:11;;;;;;;2.75;2.55;;;13.10;38.50;;;10.84;41.75;102285.00;12247514;19;20257;-79
2022/04/28 02:42:12;;;;;;;3.05;2.65;;;13.00;38.40;;;10.78;41.78;102280.81;12244601;19;20014;-79
2022/04/28 02:46:14;;;;;;;2.17;2.03;;;13.00;38.50;;;10.69;41.85;102264.56;12244711;19;20024;-79
2022/04/28 02:50:32;;;;;;;5.20;2.55;;;13.00;38.50;;;10.75;41.79;102287.91;12245616;19;20010;-79
2022/04/28 02:54:36;;;;;;;3.80;2.50;;;12.80;38.50;;;10.75;41.90;102293.13;12239764;19;20038;-79
2022/04/28 02:58:38;;;;;;;3.22;2.30;;;12.80;38.50;;;10.22;41.91;102214.59;12247141;19;20022;-79
2022/04/28 03:02:42;;;;;;;3.33;2.88;;;12.90;38.50;;;10.54;41.89;102265.88;12242512;19;20025;-79
2022/04/28 03:11:04;;;;;;;4.47;4.07;;;12.80;38.60;;;10.40;42.01;102280.22;12244389;19;20519;-79
2022/04/28 03:15:07;;;;;;;5.90;4.93;;;12.80;38.70;;;10.31;42.09;102277.00;12245766;19;20018;-79
2022/04/28 03:19:09;;;;;;;6.32;4.60;;;12.80;38.60;;;10.31;42.24;102287.44;12243684;19;20022;-79
2022/04/28 03:23:11;;;;;;;5.22;4.13;;;12.70;38.70;;;10.33;42.21;102301.31;12242744;19;20015;-79
2022/04/28 03:27:13;;;;;;;4.05;3.65;;;12.60;38.70;;;10.31;42.34;102303.13;12239838;19;20115;-79
2022/04/28 03:31:15;;;;;;;3.80;3.40;;;12.60;38.80;;;10.25;42.24;102292.81;12240923;19;20336;-79
2022/04/28 03:35:32;;;;;;;5.55;3.67;;;12.60;38.80;;;9.83;42.34;102239.19;12240648;19;20475;-79
2022/04/28 03:39:35;;;;;;;3.70;3.25;;;12.50;38.80;;;10.16;42.38;102309.59;12242305;19;20396;-79
2022/04/28 03:43:37;;;;;;;4.75;3.53;;;12.50;38.80;;;9.98;42.54;102290.94;12239312;19;20042;-79
2022/04/28 03:47:38;;;;;;;3.45;3.15;;;12.20;38.70;;;9.97;42.49;102304.88;12239282;19;20010;-79
2022/04/28 03:51:40;;;;;;;4.03;3.17;;;12.40;38.90;;;9.94;42.53;102315.41;12239469;19;20014;-79
2022/04/28 03:55:43;;;;;;;4.00;3.20;;;12.30;38.90;;;9.85;42.56;102301.75;12241997;19;20010;-79
2022/04/28 03:59:44;;;;;;;3.85;2.80;;;12.20;39.00;;;9.69;42.69;102293.47;12240309;19;20480;-79
2022/04/28 04:04:02;;;;;;;3.50;2.83;;;12.20;39.00;;;9.80;42.72;102316.66;12241330;19;20475;-79
2022/04/28 04:08:07;;;;;;;3.00;2.75;;;12.10;39.10;;;9.66;42.77;102293.56;12237231;19;20393;-79
2022/04/28 04:12:28;;;;;;;6.68;2.58;;;12.10;39.10;;;9.65;42.79;102317.94;12227751;19;20027;-79
2022/04/28 04:16:32;;;;;;;4.27;3.57;;;12.00;39.10;;;9.66;42.72;102338.75;12238211;19;20048;-79
2022/04/28 04:20:40;;;;;;;4.53;3.05;;;12.00;39.10;;;9.61;42.98;102345.81;12240705;19;20019;-78
2022/04/28 04:24:42;;;;;;;4.40;3.20;;;11.90;39.10;;;9.49;42.99;102340.94;12235509;19;20010;-78
2022/04/28 04:28:47;;;;;;;9.30;2.80;;;11.90;39.20;;;9.45;42.99;102341.88;12234275;19;20082;-78
2022/04/28 04:33:14;;;;;;;3.33;2.88;;;11.80;39.30;;;9.30;43.06;102328.34;12237121;19;20488;-78
2022/04/28 04:37:16;;;;;;;3.65;3.00;;;11.80;39.30;;;9.42;43.21;102348.03;12236594;19;20018;-78
2022/04/28 04:41:18;;;;;;;4.90;3.03;;;11.80;39.40;;;9.38;43.22;102346.41;12233959;19;20048;-79
2022/04/28 04:45:20;;;;;;;3.25;2.95;;;11.60;39.60;;;9.33;43.24;102337.84;12233897;19;20870;-78
2022/04/28 04:49:38;;;;;;;4.63;2.67;;;11.70;39.60;;;9.35;43.32;102350.84;12234597;19;20011;-80
2022/04/28 04:53:58;;;;;;;5.88;3.40;;;11.70;39.80;;;9.51;43.63;102360.84;12228721;19;20686;-79
2022/04/28 04:58:00;;;;;;;3.40;3.00;;;11.80;39.80;;;9.28;43.47;102319.69;12232876;19;20415;-78
2022/04/28 05:02:03;;;;;;;4.43;2.90;;;11.70;40.00;;;9.36;43.44;102323.88;12232739;19;20023;-79
2022/04/28 05:06:23;;;;;;;3.28;2.88;;;11.80;40.20;;;9.74;43.55;102373.31;12223629;19;20078;-79
2022/04/28 05:10:38;;;;;;;3.33;3.03;;;11.90;40.20;;;9.76;43.78;102378.50;12229207;19;20464;-79
2022/04/28 05:14:40;;;;;;;6.65;3.40;;;12.00;40.30;;;9.86;43.63;102384.38;12225446;19;20336;-79
2022/04/28 05:18:44;;;;;;;4.22;3.20;;;12.00;40.30;;;9.87;43.68;102376.47;12228812;19;20014;-79
2022/04/28 05:23:06;;;;;;;3.67;3.20;;;12.10;40.50;;;9.89;43.85;102366.00;12224361;19;20646;-78
2022/04/28 05:27:26;;;;;;;8.05;3.10;;;12.20;40.70;;;10.10;43.69;102394.16;12225248;19;20022;-78
2022/04/28 05:31:28;;;;;;;3.42;2.88;;;12.20;40.50;;;10.17;43.81;102394.84;12222568;19;20026;-79
2022/04/28 05:35:44;;;;;;;4.40;3.08;;;12.10;40.50;;;10.10;43.96;102364.56;12223127;19;20041;-80
2022/04/28 05:39:48;;;;;;;2.88;2.58;;;12.40;40.50;;;10.23;43.88;102365.94;12231525;19;20348;-79
2022/04/28 05:48:14;;;;;;;3.85;2.75;;;12.50;40.30;;;10.54;43.96;102399.09;12217697;19;20015;-80
2022/04/28 05:52:17;;;;;;;2.70;2.35;;;12.60;40.20;;;10.56;43.93;102389.47;12223466;19;20038;-79
2022/04/28 05:56:18;;;;;;;3.28;2.45;;;12.70;40.20;;;10.69;43.99;102398.66;12242955;19;20018;-78
2022/04/28 06:00:28;;;;;;;3.20;2.90;;;12.80;40.50;;;10.77;43.75;102401.03;12238317;19;20074;-81
2022/04/28 06:04:30;;;;;;;3.05;2.75;;;12.90;40.20;;;10.79;43.89;102399.25;12233336;19;20464;-79
2022/04/28 06:08:33;;;;;;;6.03;3.75;;;13.00;40.10;;;10.88;43.91;102398.97;12231482;19;20365;-79
2022/04/28 06:12:35;;;;;;;2.70;2.45;;;12.90;40.10;;;11.07;43.86;102420.19;12228115;19;20025;-80
2022/04/28 06:17:03;;;;;;;2.63;2.42;;;13.20;40.10;;;10.94;43.78;102383.13;12236401;19;20022;-80
2022/04/28 06:21:05;;;;;;;2.58;2.30;;;13.30;40.00;;;11.07;43.75;102387.09;12235904;19;20044;-81
2022/04/28 06:25:13;;;;;;;3.22;2.78;;;13.60;40.00;;;11.22;43.71;102398.81;12241228;19;20467;-79
2022/04/28 06:29:16;;;;;;;5.50;3.25;;;13.50;39.90;;;11.53;43.77;102431.88;12239490;19;20382;-76
2022/04/28 06:33:20;;;;;;;3.22;2.38;;;13.60;39.80;;;11.64;43.60;102434.16;12235554;19;20370;-77
2022/04/28 06:37:48;;;;;;;2.72;2.33;;;13.70;39.70;;;11.57;43.45;102402.06;12237529;19;20019;-78
2022/04/28 06:41:49;;;;;;;4.40;3.50;;;13.80;39.60;;;11.91;43.72;102435.03;12239547;19;20018;-82
2022/04/28 06:46:15;;;;;;;3.47;3.17;;;13.80;39.50;;;12.01;43.65;102451.28;12236546;19;20460;-78
2022/04/28 06:50:39;;;;;;;8.27;3.25;;;14.00;39.60;;;11.86;43.63;102416.00;12237777;19;20013;-78
2022/04/28 06:54:59;;;;;;;4.57;2.90;;;14.10;39.60;;;12.14;43.45;102449.97;12235207;19;20094;-80
2022/04/28 06:59:05;;;;;;;4.65;2.88;;;14.20;39.50;;;12.24;43.59;102451.38;12239988;19;20026;-78
2022/04/28 07:03:08;;;;;;;4.70;2.83;;;14.30;39.40;;;12.24;43.44;102427.78;12228333;19;20015;-79
2022/04/28 07:07:10;;;;;;;5.18;3.40;;;14.30;39.30;;;12.37;43.55;102429.06;12235970;19;20527;-78
2022/04/28 07:11:11;;;;;;;3.25;2.78;;;14.50;39.40;;;12.52;43.44;102455.63;12238664;19;20015;-80
2022/04/28 07:15:13;;;;;;;4.53;3.58;;;14.40;39.40;;;12.61;43.54;102447.47;12238442;19;20372;-80
2022/04/28 07:19:33;;;;;;;3.90;2.75;;;14.50;39.40;;;12.65;43.34;102433.31;12227657;19;20084;-82
2022/04/28 07:23:34;;;;;;;3.65;2.83;;;14.70;39.40;;;12.87;43.42;102453.50;12233925;19;20038;-79
2022/04/28 07:27:36;;;;;;;5.13;3.22;;;14.80;39.40;;;13.00;43.09;102452.97;12235343;19;20021;-81
2022/04/28 07:31:49;;;;;;;3.45;2.67;;;15.00;39.30;;;13.09;43.27;102458.78;12237743;19;20018;-80
2022/04/28 07:35:51;;;;;;;5.50;3.10;;;15.00;39.30;;;13.06;43.28;102444.03;12238356;19;20472;-79
2022/04/28 07:40:11;;;;;;;6.25;3.47;;;15.10;39.40;;;13.22;43.27;102437.28;12238862;19;20515;-79
2022/04/28 07:44:20;;;;;;;2.65;2.40;;;15.30;39.40;;;13.35;43.29;102442.94;12232809;19;20364;-79
2022/04/28 07:48:21;;;;;;;4.28;3.00;;;15.40;39.20;;;13.59;43.16;102438.50;12234735;19;20060;-79
2022/04/28 07:52:24;;;;;;;6.10;3.55;;;15.60;39.20;;;13.71;43.15;102437.97;12233435;19;20349;-80
2022/04/28 07:56:26;;;;;;;4.10;3.15;;;15.70;39.20;;;13.90;43.16;102437.22;12236311;19;20010;-79
2022/04/28 08:00:28;;;;;;;3.65;2.60;;;15.90;39.20;;;13.71;42.95;102384.63;12237269;19;20035;-78
2022/04/28 08:04:32;;;;;;;4.43;2.83;;;16.00;39.00;;;14.30;42.99;102452.16;12233327;19;20026;-79
2022/04/28 08:08:36;;;;;;;3.05;2.47;;;16.10;39.00;;;14.45;42.94;102439.28;12235264;19;20027;-78
2022/04/28 08:12:37;;;;;;;3.50;3.13;;;16.20;38.80;;;14.76;42.81;102457.19;12233568;19;20013;-78
2022/04/28 08:16:47;;;;;;;4.03;2.72;;;16.60;38.80;;;14.80;42.54;102421.97;12236171;19;20025;-79
2022/04/28 08:20:50;;;;;;;3.38;2.30;;;16.70;39.00;;;15.21;42.58;102434.97;12236490;19;20021;-79
2022/04/28 08:24:52;;;;;;;4.30;2.85;;;17.00;38.90;;;15.28;42.47;102415.28;12235066;19;20076;-79
2022/04/28 08:28:53;;;;;;;5.10;3.00;;;17.20;38.60;;;15.85;42.29;102458.22;12231464;19;20018;-78
2022/04/28 08:32:56;;;;;;;4.30;3.05;;;17.40;38.50;;;15.92;42.32;102448.19;12234101;19;20070;-79
2022/04/28 08:36:58;;;;;;;4.85;3.38;;;17.80;38.40;;;16.16;42.28;102461.94;12233314;19;20494;-78
2022/04/28 08:41:03;;;;;;;5.18;3.17;;;18.00;38.20;;;16.33;41.94;102459.25;12234389;19;20015;-80
2022/04/28 08:45:33;;;;;;;3.85;3.03;;;18.20;37.80;;;16.53;41.70;102455.59;12233641;19;20034;-82
2022/04/28 08:50:00;;;;;;;4.90;2.95;;;18.20;37.30;;;16.70;41.71;102443.31;12234885;19;20010;-83
2022/04/28 08:54:08;;;;;;;3.70;2.97;;;18.50;37.50;;;16.86;41.55;102453.91;12232974;19;20031;-83
2022/04/28 08:58:10;;;;;;;3.78;2.67;;;18.70;37.40;;;17.08;41.43;102457.09;12235871;19;20031;-82
2022/04/28 09:02:26;;;;;;;4.55;3.20;;;18.70;37.30;;;17.12;41.36;102442.78;12232568;19;20042;-81
2022/04/28 09:06:42;;;;;;;4.25;2.63;;;19.10;37.10;;;17.25;41.12;102438.53;12232182;19;20128;-81
2022/04/28 09:11:21;;;;;;;3.60;3.10;;;19.10;37.00;;;17.48;41.00;102444.31;12234523;19;20014;-82
2022/04/28 09:15:29;;;;;;;3.80;2.83;;;19.30;36.80;;;17.47;41.06;102405.59;12232275;19;20053;-82
2022/04/28 09:19:41;;;;;;;4.50;2.80;;;19.50;36.90;;;17.98;40.89;102456.41;12232291;19;20006;-84
2022/04/28 09:23:59;;;;;;;7.55;3.45;;;19.70;36.90;;;17.98;40.71;102432.59;12229783;19;20010;-90
2022/04/28 09:28:03;;;;;;;8.15;3.38;;;19.80;36.50;;;18.13;40.50;102444.91;12228920;19;20014;-82
2022/04/28 09:32:13;;;;;;;3.25;2.65;;;20.00;36.20;;;18.42;40.35;102441.47;12245517;19;20011;-87
2022/04/28 09:36:49;;;;;;;3.90;3.10;;;20.30;36.40;;;18.37;40.18;102412.66;12243085;19;20038;-83
2022/04/28 09:45:22;;;;;;;6.70;3.58;;;20.60;35.70;;;18.63;39.90;102449.88;12242787;19;20006;-83
2022/04/28 09:49:30;;;;;;;5.53;3.25;;;20.60;35.40;;;18.52;39.79;102443.47;12242336;19;20006;-83
2022/04/28 09:54:17;;;;;;;5.72;2.97;;;20.50;35.30;;;18.18;39.71;102383.00;12240687;19;20614;-82
2022/04/28 09:58:26;;;;;;;3.65;2.65;;;20.60;35.30;;;18.40;39.52;102423.03;12240184;19;20014;-83
2022/04/28 10:02:29;;;;;;;;;;;20.60;35.20;;;18.53;39.87;102433.72;12242996;19;20014;-82
2022/04/28 10:06:33;;;;;;;3.25;2.45;;;20.50;35.70;;;18.58;39.67;102431.66;12239471;19;19922;-86
2022/04/28 10:10:44;;;;;;;5.38;2.72;;;20.60;35.20;;;18.87;39.37;102458.97;12241634;19;20034;-83
2022/04/28 10:14:47;;;;;;;6.05;3.50;;;20.70;35.30;;;18.93;39.29;102455.97;12234932;19;20035;-83
2022/04/28 10:19:00;;;;;;;3.85;2.85;;;20.70;35.20;;;18.73;39.04;102428.03;12241897;19;20019;-82
2022/04/28 10:23:07;;;;;;;3.83;2.80;;;20.60;34.90;;;18.76;38.81;102434.97;12239023;19;20014;-83
2022/04/28 10:36:21;;;;;;;2.60;2.40;;;20.80;34.70;;;18.82;38.53;102450.47;12242381;19;20082;-83
2022/04/28 10:40:23;;;;;;;7.35;2.97;;;20.80;34.40;;;18.83;38.50;102465.41;12236974;19;20011;-82
2022/04/28 10:44:35;;;;;;;5.40;2.58;;;20.90;34.40;;;18.75;38.72;102465.88;12234192;19;20015;-83
2022/04/28 10:48:43;;;;;;;3.78;2.50;;;20.80;34.40;;;18.65;38.42;102455.94;12237306;19;20074;-83
2022/04/28 10:53:05;;;;;;;2.97;2.55;;;20.80;34.50;;;18.71;38.68;102447.59;12240182;19;20014;-82
2022/04/28 10:57:06;;;;;;;3.15;2.85;;;20.70;34.40;;;18.77;38.31;102452.56;12241686;19;20468;-83
2022/04/28 11:01:23;;;;;;;5.05;2.60;;;20.60;34.50;;;18.82;38.55;102454.91;12232308;19;20014;-83
2022/04/28 11:05:35;;;;;;;5.50;2.83;;;20.70;34.50;;;18.74;38.35;102442.13;12233897;19;20042;-83
2022/04/28 11:09:50;;;;;;;3.72;2.58;;;20.80;34.30;;;18.76;38.16;102448.19;12240680;19;20038;-83
2022/04/28 11:13:59;;;;;;;3.78;2.40;;;20.70;34.40;;;18.62;38.21;102430.50;12236513;19;20010;-81
2022/04/28 11:18:01;;;;;;;3.10;2.60;;;20.80;34.60;;;18.82;38.47;102446.97;12240461;19;20018;-83
2022/04/28 11:22:03;;;;;;;4.30;2.90;;;20.80;34.60;;;18.62;38.34;102397.91;12238334;19;20014;-81
2022/04/28 11:26:06;;;;;;;3.42;2.15;;;20.80;34.30;;;18.86;38.19;102424.66;12238324;19;20006;-82
2022/04/28 11:30:28;;;;;;;4.20;2.20;;;20.80;34.30;;;19.10;37.93;102443.44;12239926;19;20040;-82
2022/04/28 11:34:30;;;;;;;9.23;2.67;;;20.80;34.40;;;19.19;37.90;102416.34;12238374;19;20006;-83
2022/04/28 11:38:32;;;;;;;3.83;2.50;;;21.00;34.40;;;19.52;37.61;102447.75;12234134;19;20014;-82
2022/04/28 11:42:36;;;;;;;5.63;2.35;;;21.20;34.10;;;19.49;37.51;102432.03;12226864;19;20010;-86
2022/04/28 11:46:59;;;;;;;3.75;2.30;;;21.30;34.00;;;19.52;37.29;102441.59;12224969;19;20010;-83
2022/04/28 11:51:04;;;;;;;3.08;2.35;;;21.40;33.70;;;19.25;37.17;102410.66;12238943;19;20381;-84
2022/04/28 11:55:08;;;;;;;3.42;1.90;;;21.40;33.70;;;19.33;37.46;102426.91;12239330;19;20026;-84
2022/04/28 11:59:10;;;;;;;2.42;1.75;;;21.40;33.80;;;19.31;37.37;102427.94;12235470;19;20079;-85
2022/04/28 12:03:27;;;;;;;7.00;2.55;;;21.20;33.60;;;19.11;37.20;102400.97;12228942;19;20329;-85
2022/04/28 12:07:32;;;;;;;2.30;1.90;;;21.20;33.40;;;19.30;37.15;102407.72;12230410;19;20373;-85
2022/04/28 12:15:55;;;;;;;3.25;2.13;;;21.40;33.50;;;19.52;37.04;102401.84;12230107;19;20014;-83
2022/04/28 12:20:01;;;;;;;4.13;2.55;;;21.40;33.40;;;19.61;36.80;102401.25;12235338;19;20014;-84
2022/04/28 12:24:22;;;;;;;2.33;2.13;;;21.50;33.40;;;19.79;36.47;102415.09;12235622;19;20018;-85
2022/04/28 12:28:49;;;;;;;3.13;2.15;;;21.60;33.10;;;19.68;36.59;102415.81;12232090;19;20014;-83
2022/04/28 12:32:56;;;;;;;2.92;2.05;;;21.50;33.10;;;19.59;36.51;102408.44;12234680;19;20014;-82
2022/04/28 12:37:00;;;;;;;3.17;2.33;;;21.50;32.90;;;19.59;36.50;102409.28;12234872;19;20007;-81
2022/04/28 12:41:16;;;;;;;4.65;2.10;;;21.50;33.00;;;19.59;36.10;102403.16;12230349;19;20073;-84
2022/04/28 12:45:57;;;;;;;1.70;1.60;;;21.60;32.90;;;19.59;36.22;102396.03;12234028;19;20022;-82
2022/04/28 12:49:58;;;;;;;2.65;1.88;;;21.40;33.00;;;19.52;36.32;102380.66;12228977;19;20471;-84
2022/04/28 12:54:25;;;;;;;3.42;2.05;;;21.60;32.70;;;19.64;36.05;102406.34;12205622;19;20884;-82
2022/04/28 12:58:26;;;;;;;2.08;1.65;;;21.60;32.70;;;19.53;36.37;102392.97;12213891;19;20026;-84
2022/04/28 13:02:30;;;;;;;5.75;1.50;;;21.40;32.70;;;19.40;36.01;102367.28;12215844;19;20476;-83
2022/04/28 13:06:35;;;;;;;1.52;1.42;;;21.40;32.70;;;19.48;36.13;102371.22;12229205;19;20017;-83
2022/04/28 13:10:36;;;;;;;1.40;1.30;;;21.40;32.90;;;19.48;35.94;102366.75;12231745;19;20015;-84
2022/04/28 13:14:38;;;;;;;3.90;1.90;;;21.40;32.90;;;19.60;36.11;102381.81;12224350;19;20018;-82
2022/04/28 13:18:40;;;;;;;1.52;1.42;;;21.50;32.80;;;19.68;36.21;102381.34;12229486;19;20021;-81
2022/04/28 13:22:42;;;;;;;4.75;1.90;;;21.60;32.80;;;19.39;35.81;102340.91;12233430;19;20086;-82
2022/04/28 13:26:43;;;;;;;4.32;2.00;;;21.40;32.70;;;19.46;35.76;102361.56;12228876;19;20764;-80
2022/04/28 13:30:45;;;;;;;2.33;1.75;;;21.60;32.70;;;19.57;36.05;102381.19;12227803;19;20015;-81
2022/04/28 13:34:47;;;;;;;2.03;1.58;;;21.50;32.70;;;19.22;35.72;102324.28;12225670;19;20879;-80
2022/04/28 13:38:49;;;;;;;2.55;1.55;;;21.50;32.70;;;19.48;36.07;102374.72;12228434;19;20023;-80
2022/04/28 13:42:50;;;;;;;2.78;1.55;;;21.50;32.60;;;19.52;35.88;102372.69;12226441;19;20025;-82
2022/04/28 13:46:52;;;;;;;4.10;1.80;;;21.50;32.60;;;19.16;35.87;102305.31;12229422;19;20018;-81
2022/04/28 13:50:54;;;;;;;3.88;1.83;;;21.40;32.60;;;19.37;35.65;102317.13;12232677;19;20364;-81
2022/04/28 13:54:55;;;;;;;6.95;1.85;;;21.40;32.60;;;19.57;35.45;102321.09;12226850;19;20026;-80
2022/04/28 13:58:57;;;;;;;2.33;2.13;;;21.30;32.60;;;19.80;35.51;102340.78;12231111;19;20025;-81
2022/04/28 14:02:59;;;;;;;3.53;1.92;;;21.50;31.90;;;19.65;35.44;102309.97;12222542;19;20014;-81
2022/04/28 14:07:00;;;;;;;6.28;1.67;;;21.60;32.30;;;19.91;35.15;102328.59;12227274;19;20019;-82
2022/04/28 14:11:04;;;;;;;3.20;1.45;;;21.70;32.60;;;19.77;35.45;102279.16;12232224;19;20042;-82
2022/04/28 14:15:10;;;;;;;3.58;1.90;;;22.00;32.80;;;20.17;35.33;102338.22;12227244;19;20010;-82
2022/04/28 14:19:11;;;;;;;3.97;2.40;;;21.90;32.40;;;20.23;34.88;102350.22;12228138;19;20026;-81
2022/04/28 14:23:13;;;;;;;1.92;1.35;;;22.00;32.10;;;20.16;35.08;102339.16;12225494;19;20042;-82
2022/04/28 14:27:16;;;;;;;4.20;1.60;;;22.00;32.20;;;20.06;35.16;102311.59;12226490;19;20029;-82
2022/04/28 14:31:17;;;;;;;2.67;2.15;;;21.80;32.10;;;20.24;34.96;102326.22;12225363;19;20086;-81
2022/04/28 14:35:19;;;;;;;4.63;1.80;;;22.00;32.20;;;20.28;35.03;102333.00;12224700;19;20017;-86
2022/04/28 14:39:21;;;;;;;2.00;1.45;;;21.90;32.10;;;20.32;34.90;102323.84;12210285;19;20011;-81
2022/04/28 14:43:23;;;;;;;2.67;1.73;;;22.30;32.30;;;20.24;34.96;102298.84;12228447;19;20078;-81
2022/04/28 14:47:24;;;;;;;2.58;1.95;;;21.90;31.70;;;20.46;34.67;102330.00;12226174;19;20021;-80
2022/04/28 14:55:46;;;;;;;4.55;2.00;;;22.20;31.70;;;20.51;34.32;102328.69;12225307;19;20010;-79
2022/04/28 14:59:48;;;;;;;1.60;1.50;;;22.30;31.60;;;20.49;34.51;102324.47;12228022;19;20022;-79
2022/04/28 15:03:50;;;;;;;2.55;1.55;;;22.30;31.60;;;20.51;34.35;102335.81;12221262;19;20019;-81
2022/04/28 15:07:51;;;;;;;4.93;2.22;;;22.20;31.60;;;20.39;34.31;102316.31;12225979;19;20058;-81
2022/04/28 15:11:53;;;;;;;3.78;1.50;;;22.20;31.60;;;20.16;34.22;102270.19;12224345;19;20412;-81
2022/04/28 15:15:55;;;;;;;1.95;1.80;;;22.30;31.30;;;20.44;34.12;102327.47;12223700;19;20011;-80
2022/04/28 15:19:58;;;;;;;2.13;1.58;;;22.30;31.50;;;20.28;34.35;102308.25;12217604;19;20023;-81
2022/04/28 15:23:59;;;;;;;1.75;1.60;;;22.20;31.30;;;20.27;33.93;102311.88;12217522;19;20011;-82
2022/04/28 15:28:01;;;;;;;4.68;1.58;;;22.10;31.20;;;20.26;33.97;102339.38;12220499;19;20042;-80
2022/04/28 15:32:04;;;;;;;1.65;1.42;;;22.20;31.30;;;20.17;33.96;102330.28;12220930;19;20015;-81
2022/04/28 15:36:07;;;;;;;1.70;1.48;;;22.10;31.40;;;20.02;34.12;102316.25;12224295;19;20057;-81
2022/04/28 15:40:10;;;;;;;2.97;1.50;;;22.10;31.40;;;20.13;34.28;102336.72;12224448;19;20357;-81
2022/04/28 15:44:11;;;;;;;1.83;1.63;;;22.10;31.50;;;19.52;34.33;102234.91;12220038;19;20540;-80
2022/04/28 15:48:13;;;;;;;2.00;1.80;;;22.00;31.50;;;19.96;34.06;102324.66;12222038;19;20775;-81
2022/04/28 15:52:14;;;;;;;3.08;1.80;;;21.90;31.60;;;19.72;34.02;102287.44;12212844;19;20025;-81
2022/04/28 15:56:16;;;;;;;2.53;1.60;;;22.00;31.50;;;19.95;33.85;102343.31;12216879;19;20025;-81
2022/04/28 16:00:18;;;;;;;3.20;1.67;;;21.90;31.50;;;19.83;34.36;102334.41;12221950;19;20024;-81
2022/04/28 16:04:19;;;;;;;3.72;1.40;;;21.80;31.60;;;19.72;34.35;102319.25;12216198;19;20034;-81
2022/04/28 16:08:21;;;;;;;4.55;2.15;;;21.80;31.70;;;19.78;34.30;102342.66;12218491;19;20017;-79
2022/04/28 16:12:26;;;;;;;1.55;1.40;;;21.70;31.60;;;19.50;34.35;102301.28;12221183;19;20022;-80
2022/04/28 16:16:28;;;;;;;2.47;1.60;;;21.70;31.70;;;19.73;34.21;102347.44;12217157;19;20156;-80
2022/04/28 16:20:29;;;;;;;1.92;1.23;;;21.60;31.60;;;19.19;34.19;102257.44;12220427;19;20018;-80
2022/04/28 16:24:31;;;;;;;2.95;1.50;;;21.60;31.70;;;19.56;34.26;102329.16;12214909;19;20078;-79
2022/04/28 16:28:33;;;;;;;2.97;1.33;;;21.60;31.70;;;19.60;34.29;102343.88;12215051;19;20018;-80
2022/04/28 16:32:35;;;;;;;2.83;1.30;;;21.50;31.70;;;19.39;34.20;102309.94;12217381;19;20029;-80
2022/04/28 16:36:37;;;;;;;1.58;1.48;;;21.50;31.90;;;19.52;34.39;102338.25;12215441;19;20045;-80
2022/04/28 16:40:40;;;;;;;2.80;1.15;;;21.40;31.70;;;19.33;34.19;102331.53;12219272;19;20036;-79
2022/04/28 16:44:42;;;;;;;2.83;1.50;;;21.40;31.70;;;19.35;34.14;102326.13;12213794;19;20021;-80
2022/04/28 16:48:44;;;;;;;3.08;1.50;;;21.40;31.90;;;19.50;34.49;102345.47;12217757;19;20015;-79
2022/04/28 16:52:49;;;;;;;4.53;1.40;;;21.40;32.00;;;19.39;34.55;102330.31;12215880;19;20506;-79
2022/04/28 16:56:51;;;;;;;18.42;13.48;;;21.40;32.00;;;19.33;34.29;102328.03;12218330;19;20032;-79
2022/04/28 17:00:52;;;;;;;25.40;15.85;;;21.30;31.80;;;19.31;34.51;102328.16;12216407;19;20019;-79
2022/04/28 17:04:55;;;;;;;10.35;7.55;;;21.30;31.90;;;19.01;34.41;102283.38;12213889;19;20073;-79
2022/04/28 17:08:57;;;;;;;5.45;3.60;;;21.30;32.00;;;19.10;34.31;102314.53;12216100;19;20011;-80
2022/04/28 17:12:59;;;;;;;2.22;2.00;;;21.60;32.40;;;19.05;34.65;102321.91;12213535;19;20638;-80
2022/04/28 17:17:01;;;;;;;2.53;1.58;;;21.10;32.10;;;19.15;34.76;102340.72;12216117;19;20018;-80
2022/04/28 17:21:03;;;;;;;2.22;1.55;;;21.10;32.20;;;19.12;34.46;102346.19;12216209;19;20034;-80
2022/04/28 17:25:07;;;;;;;3.35;2.17;;;21.10;32.20;;;19.05;34.50;102339.63;12204190;19;20035;-79
2022/04/28 17:29:33;;;;;;;3.10;1.45;;;21.10;32.30;;;19.08;34.52;102352.66;12211808;19;20025;-79
2022/04/28 17:33:55;;;;;;;3.65;1.35;;;21.00;32.20;;;18.96;34.89;102347.22;12212948;19;20019;-79